createdAt,value
2018-02-27T00:00:15.397Z,1007.37
2018-02-27T00:00:55.903Z,1007.34
2018-02-27T00:01:36.428Z,1007.38
2018-02-27T00:02:16.934Z,1007.32
2018-02-27T00:02:57.454Z,1007.29
2018-02-27T00:03:37.961Z,1007.33
2018-02-27T00:04:18.589Z,1007.26
2018-02-27T00:04:59.130Z,1007.25
2018-02-27T00:05:39.646Z,1007.26
2018-02-27T00:06:20.180Z,1007.28
2018-02-27T00:07:00.704Z,1007.27
2018-02-27T00:07:41.204Z,1007.28
2018-02-27T00:08:21.718Z,1007.31
2018-02-27T00:09:02.232Z,1007.24
2018-02-27T00:09:42.771Z,1007.32
2018-02-27T00:10:23.287Z,1007.31
2018-02-27T00:11:03.798Z,1007.29
2018-02-27T00:11:44.453Z,1007.24
2018-02-27T00:12:24.951Z,1007.3
2018-02-27T00:13:05.465Z,1007.3
2018-02-27T00:13:45.989Z,1007.25
2018-02-27T00:14:26.511Z,1007.28
2018-02-27T00:15:07.026Z,1007.34
2018-02-27T00:15:47.545Z,1007.32
2018-02-27T00:16:28.052Z,1007.33
2018-02-27T00:17:08.564Z,1007.28
2018-02-27T00:17:49.071Z,1007.23
2018-02-27T00:18:29.684Z,1007.34
2018-02-27T00:19:10.223Z,1007.31
2018-02-27T00:19:50.599Z,1007.26
2018-02-27T00:20:31.148Z,1007.27
2018-02-27T00:21:11.661Z,1007.25
2018-02-27T00:21:52.166Z,1007.25
2018-02-27T00:22:32.677Z,1007.23
2018-02-27T00:23:13.208Z,1007.26
2018-02-27T00:23:53.714Z,1007.19
2018-02-27T00:24:34.236Z,1007.21
2018-02-27T00:25:14.762Z,1007.28
2018-02-27T00:25:55.238Z,1007.21
2018-02-27T00:26:35.778Z,1007.21
2018-02-27T00:27:16.297Z,1007.22
2018-02-27T00:27:56.832Z,1007.22
2018-02-27T00:28:37.333Z,1007.16
2018-02-27T00:29:17.846Z,1007.17
2018-02-27T00:29:58.363Z,1007.16
2018-02-27T00:30:38.869Z,1007.22
2018-02-27T00:31:19.359Z,1007.19
2018-02-27T00:32:00.186Z,1007.15
2018-02-27T00:32:40.635Z,1007.14
2018-02-27T00:33:21.133Z,1007.14
2018-02-27T00:34:01.620Z,1007.15
2018-02-27T00:34:42.143Z,1007.17
2018-02-27T00:35:22.660Z,1007.19
2018-02-27T00:36:03.157Z,1007.12
2018-02-27T00:36:43.673Z,1007.13
2018-02-27T00:37:24.195Z,1007.18
2018-02-27T00:38:04.749Z,1007.14
2018-02-27T00:38:45.283Z,1007.23
2018-02-27T00:39:25.775Z,1007.15
2018-02-27T00:40:06.287Z,1007.18
2018-02-27T00:40:46.804Z,1007.12
2018-02-27T00:41:27.302Z,1007.13
2018-02-27T00:42:07.805Z,1007.15
2018-02-27T00:42:48.340Z,1007.15
2018-02-27T00:43:28.852Z,1007.16
2018-02-27T00:44:09.357Z,1007.16
2018-02-27T00:44:49.975Z,1007.15
2018-02-27T00:45:30.566Z,1007.16
2018-02-27T00:46:11.069Z,1007.2
2018-02-27T00:46:51.528Z,1007.23
2018-02-27T00:47:32.053Z,1007.16
2018-02-27T00:48:12.574Z,1007.18
2018-02-27T00:48:53.126Z,1007.15
2018-02-27T00:49:33.602Z,1007.13
2018-02-27T00:50:14.128Z,1007.18
2018-02-27T00:50:54.632Z,1007.16
2018-02-27T00:51:35.159Z,1007.14
2018-02-27T00:52:15.706Z,1007.11
2018-02-27T00:52:56.212Z,1007.11
2018-02-27T00:53:36.747Z,1007.14
2018-02-27T00:54:17.276Z,1007.16
2018-02-27T00:54:57.804Z,1007.09
2018-02-27T00:55:38.317Z,1007.12
2018-02-27T00:56:18.831Z,1007.11
2018-02-27T00:56:59.332Z,1007.07
2018-02-27T00:57:39.843Z,1007.14
2018-02-27T00:58:20.350Z,1007.1
2018-02-27T00:59:00.863Z,1007.05
2018-02-27T00:59:41.394Z,1007.12
2018-02-27T01:00:21.894Z,1007.06
2018-02-27T01:01:02.400Z,1007.09
2018-02-27T01:01:42.909Z,1007.03
2018-02-27T01:02:23.416Z,1007.07
2018-02-27T01:03:03.925Z,1007.05
2018-02-27T01:03:44.458Z,1007.05
2018-02-27T01:04:24.961Z,1007.04
2018-02-27T01:05:05.491Z,1007
2018-02-27T01:05:45.996Z,1007.01
2018-02-27T01:06:26.507Z,1006.96
2018-02-27T01:07:07.009Z,1006.97
2018-02-27T01:07:47.543Z,1007
2018-02-27T01:08:28.065Z,1006.94
2018-02-27T01:09:08.568Z,1006.95
2018-02-27T01:09:49.088Z,1006.93
2018-02-27T01:10:29.684Z,1006.97
2018-02-27T01:11:10.231Z,1006.96
2018-02-27T01:11:50.758Z,1007
2018-02-27T01:12:31.387Z,1006.98
2018-02-27T01:13:11.907Z,1006.93
2018-02-27T01:13:52.423Z,1006.99
2018-02-27T01:14:33.018Z,1006.93
2018-02-27T01:15:13.528Z,1006.97
2018-02-27T01:15:54.032Z,1006.94
2018-02-27T01:16:34.548Z,1006.92
2018-02-27T01:17:15.060Z,1006.94
2018-02-27T01:17:55.572Z,1006.92
2018-02-27T01:18:36.087Z,1006.86
2018-02-27T01:19:16.593Z,1006.9
2018-02-27T01:19:57.113Z,1006.88
2018-02-27T01:20:37.620Z,1006.89
2018-02-27T01:21:18.156Z,1006.9
2018-02-27T01:21:58.685Z,1006.9
2018-02-27T01:22:39.207Z,1006.88
2018-02-27T01:23:19.719Z,1006.89
2018-02-27T01:24:00.209Z,1006.91
2018-02-27T01:24:40.722Z,1006.92
2018-02-27T01:25:21.228Z,1006.91
2018-02-27T01:26:01.739Z,1006.87
2018-02-27T01:26:42.282Z,1006.89
2018-02-27T01:27:22.803Z,1006.89
2018-02-27T01:28:03.321Z,1006.91
2018-02-27T01:28:43.820Z,1006.95
2018-02-27T01:29:24.336Z,1006.91
2018-02-27T01:30:04.842Z,1006.9
2018-02-27T01:30:45.350Z,1006.9
2018-02-27T01:31:25.865Z,1006.9
2018-02-27T01:32:06.381Z,1006.89
2018-02-27T01:32:46.897Z,1006.89
2018-02-27T01:33:27.398Z,1006.91
2018-02-27T01:34:07.977Z,1006.95
2018-02-27T01:34:48.534Z,1006.93
2018-02-27T01:35:29.046Z,1006.9
2018-02-27T01:36:09.571Z,1006.89
2018-02-27T01:36:50.071Z,1006.94
2018-02-27T01:37:30.577Z,1006.9
2018-02-27T01:38:11.085Z,1006.85
2018-02-27T01:38:51.586Z,1006.88
2018-02-27T01:39:32.095Z,1006.9
2018-02-27T01:40:12.616Z,1006.87
2018-02-27T01:40:53.121Z,1006.85
2018-02-27T01:41:33.626Z,1006.84
2018-02-27T01:42:14.135Z,1006.8
2018-02-27T01:42:54.644Z,1006.85
2018-02-27T01:43:35.176Z,1006.88
2018-02-27T01:44:15.654Z,1006.83
2018-02-27T01:44:56.170Z,1006.85
2018-02-27T01:45:36.701Z,1006.82
2018-02-27T01:46:17.182Z,1006.81
2018-02-27T01:46:57.701Z,1006.82
2018-02-27T01:47:38.222Z,1006.83
2018-02-27T01:48:18.752Z,1006.8
2018-02-27T01:48:59.241Z,1006.79
2018-02-27T01:49:39.772Z,1006.81
2018-02-27T01:50:20.278Z,1006.73
2018-02-27T01:51:00.791Z,1006.77
2018-02-27T01:51:41.317Z,1006.76
2018-02-27T01:52:21.826Z,1006.74
2018-02-27T01:53:02.337Z,1006.74
2018-02-27T01:53:42.833Z,1006.81
2018-02-27T01:54:23.397Z,1006.71
2018-02-27T01:55:03.909Z,1006.79
2018-02-27T01:55:44.426Z,1006.75
2018-02-27T01:56:24.943Z,1006.7
2018-02-27T01:57:05.439Z,1006.75
2018-02-27T01:57:45.943Z,1006.78
2018-02-27T01:58:26.455Z,1006.68
2018-02-27T01:59:06.959Z,1006.78
2018-02-27T01:59:47.469Z,1006.77
2018-02-27T02:00:27.977Z,1006.74
2018-02-27T02:01:08.558Z,1006.7
2018-02-27T02:01:49.057Z,1006.65
2018-02-27T02:02:29.588Z,1006.68
2018-02-27T02:03:10.098Z,1006.56
2018-02-27T02:03:50.611Z,1006.6
2018-02-27T02:04:31.137Z,1006.56
2018-02-27T02:05:11.643Z,1006.57
2018-02-27T02:05:52.152Z,1006.6
2018-02-27T02:06:32.662Z,1006.62
2018-02-27T02:07:13.174Z,1006.59
2018-02-27T02:07:53.719Z,1006.63
2018-02-27T02:08:34.224Z,1006.6
2018-02-27T02:09:14.738Z,1006.51
2018-02-27T02:09:55.278Z,1006.57
2018-02-27T02:10:35.794Z,1006.56
2018-02-27T02:11:16.313Z,1006.56
2018-02-27T02:11:56.842Z,1006.54
2018-02-27T02:12:37.358Z,1006.51
2018-02-27T02:13:17.868Z,1006.48
2018-02-27T02:13:58.448Z,1006.51
2018-02-27T02:14:38.960Z,1006.5
2018-02-27T02:15:19.473Z,1006.47
2018-02-27T02:15:59.982Z,1006.47
2018-02-27T02:16:40.532Z,1006.5
2018-02-27T02:17:21.043Z,1006.41
2018-02-27T02:18:01.565Z,1006.46
2018-02-27T02:18:42.077Z,1006.5
2018-02-27T02:19:22.592Z,1006.46
2018-02-27T02:20:03.115Z,1006.46
2018-02-27T02:20:43.622Z,1006.4
2018-02-27T02:21:24.134Z,1006.36
2018-02-27T02:22:04.638Z,1006.4
2018-02-27T02:22:45.210Z,1006.38
2018-02-27T02:23:25.656Z,1006.4
2018-02-27T02:24:06.192Z,1006.41
2018-02-27T02:24:46.721Z,1006.42
2018-02-27T02:25:27.234Z,1006.34
2018-02-27T02:26:07.737Z,1006.35
2018-02-27T02:26:48.268Z,1006.29
2018-02-27T02:27:28.776Z,1006.33
2018-02-27T02:28:09.282Z,1006.36
2018-02-27T02:28:49.785Z,1006.38
2018-02-27T02:29:30.290Z,1006.43
2018-02-27T02:30:10.803Z,1006.45
2018-02-27T02:32:24.062Z,1006.39
2018-02-27T02:33:04.574Z,1006.37
2018-02-27T02:33:45.084Z,1006.36
2018-02-27T02:34:25.594Z,1006.37
2018-02-27T02:35:06.106Z,1006.4
2018-02-27T02:35:46.628Z,1006.34
2018-02-27T02:36:27.137Z,1006.34
2018-02-27T02:37:07.656Z,1006.34
2018-02-27T02:37:48.159Z,1006.36
2018-02-27T02:38:28.684Z,1006.38
2018-02-27T02:39:09.183Z,1006.35
2018-02-27T02:39:49.695Z,1006.35
2018-02-27T02:40:30.201Z,1006.4
2018-02-27T02:41:10.718Z,1006.36
2018-02-27T02:41:51.217Z,1006.32
2018-02-27T02:42:31.717Z,1006.37
2018-02-27T02:43:12.227Z,1006.4
2018-02-27T02:43:52.727Z,1006.35
2018-02-27T02:44:33.243Z,1006.32
2018-02-27T02:45:13.742Z,1006.37
2018-02-27T02:45:54.255Z,1006.36
2018-02-27T02:46:34.772Z,1006.33
2018-02-27T02:47:15.275Z,1006.36
2018-02-27T02:47:55.794Z,1006.37
2018-02-27T02:48:36.309Z,1006.33
2018-02-27T02:49:16.815Z,1006.33
2018-02-27T02:49:57.344Z,1006.31
2018-02-27T02:50:37.842Z,1006.34
2018-02-27T02:51:18.365Z,1006.29
2018-02-27T02:51:58.864Z,1006.36
2018-02-27T02:52:39.370Z,1006.28
2018-02-27T02:53:19.874Z,1006.26
2018-02-27T02:54:00.388Z,1006.25
2018-02-27T02:54:40.902Z,1006.28
2018-02-27T02:55:21.406Z,1006.3
2018-02-27T02:56:01.919Z,1006.32
2018-02-27T02:56:42.411Z,1006.35
2018-02-27T02:57:22.924Z,1006.33
2018-02-27T02:58:03.421Z,1006.33
2018-02-27T02:58:43.930Z,1006.35
2018-02-27T02:59:24.446Z,1006.32
2018-02-27T03:00:04.953Z,1006.37
2018-02-27T03:00:45.464Z,1006.33
2018-02-27T03:01:25.966Z,1006.26
2018-02-27T03:02:06.479Z,1006.26
2018-02-27T03:02:46.991Z,1006.28
2018-02-27T03:03:27.505Z,1006.34
2018-02-27T03:04:08.029Z,1006.34
2018-02-27T03:04:48.530Z,1006.29
2018-02-27T03:05:29.033Z,1006.28
2018-02-27T03:06:09.540Z,1006.32
2018-02-27T03:06:50.046Z,1006.34
2018-02-27T03:07:30.556Z,1006.26
2018-02-27T03:08:11.094Z,1006.3
2018-02-27T03:08:51.590Z,1006.3
2018-02-27T03:09:32.106Z,1006.19
2018-02-27T03:10:12.608Z,1006.24
2018-02-27T03:10:53.112Z,1006.26
2018-02-27T03:11:33.618Z,1006.28
2018-02-27T03:12:14.125Z,1006.25
2018-02-27T03:12:54.648Z,1006.17
2018-02-27T03:13:35.158Z,1006.19
2018-02-27T03:14:15.668Z,1006.2
2018-02-27T03:14:56.174Z,1006.18
2018-02-27T03:15:36.675Z,1006.19
2018-02-27T03:16:17.205Z,1006.17
2018-02-27T03:16:57.717Z,1006.14
2018-02-27T03:17:38.227Z,1006.11
2018-02-27T03:18:18.744Z,1006.16
2018-02-27T03:18:59.254Z,1006.12
2018-02-27T03:19:39.779Z,1006.09
2018-02-27T03:20:20.281Z,1006.09
2018-02-27T03:21:00.805Z,1006.19
2018-02-27T03:21:41.307Z,1006.15
2018-02-27T03:22:21.818Z,1006.08
2018-02-27T03:23:02.337Z,1006.11
2018-02-27T03:23:42.847Z,1006.06
2018-02-27T03:24:23.356Z,1006.09
2018-02-27T03:25:03.862Z,1006
2018-02-27T03:25:44.371Z,1006.1
2018-02-27T03:26:24.874Z,1006.09
2018-02-27T03:27:05.388Z,1006.06
2018-02-27T03:27:45.893Z,1006.07
2018-02-27T03:28:26.416Z,1006.05
2018-02-27T03:29:06.915Z,1006.02
2018-02-27T03:29:47.426Z,1006.03
2018-02-27T03:30:27.931Z,1006.08
2018-02-27T03:31:08.448Z,1006.09
2018-02-27T03:31:48.934Z,1006.09
2018-02-27T03:32:29.450Z,1006.04
2018-02-27T03:33:09.965Z,1006.13
2018-02-27T03:33:50.457Z,1006.05
2018-02-27T03:34:30.976Z,1006
2018-02-27T03:35:11.480Z,1006
2018-02-27T03:35:51.987Z,1006.01
2018-02-27T03:36:32.538Z,1005.96
2018-02-27T03:37:13.051Z,1005.98
2018-02-27T03:37:53.575Z,1005.93
2018-02-27T03:38:34.074Z,1005.95
2018-02-27T03:39:14.592Z,1006.01
2018-02-27T03:39:55.109Z,1005.99
2018-02-27T03:40:35.632Z,1005.95
2018-02-27T03:41:16.148Z,1005.92
2018-02-27T03:41:57.496Z,1005.95
2018-02-27T03:42:37.996Z,1005.92
2018-02-27T03:43:18.504Z,1005.91
2018-02-27T03:43:59.015Z,1005.97
2018-02-27T03:44:39.531Z,1005.86
2018-02-27T03:45:20.037Z,1005.95
2018-02-27T03:46:00.545Z,1005.93
2018-02-27T03:46:41.060Z,1005.94
2018-02-27T03:47:21.569Z,1005.94
2018-02-27T03:48:02.079Z,1005.96
2018-02-27T03:48:42.592Z,1005.92
2018-02-27T03:49:23.100Z,1005.96
2018-02-27T03:50:03.613Z,1005.91
2018-02-27T03:50:44.128Z,1005.88
2018-02-27T03:51:24.740Z,1005.97
2018-02-27T03:52:05.161Z,1005.92
2018-02-27T03:52:45.662Z,1005.95
2018-02-27T03:53:26.188Z,1006
2018-02-27T03:54:06.686Z,1005.94
2018-02-27T03:54:47.187Z,1005.92
2018-02-27T03:55:27.717Z,1005.95
2018-02-27T03:56:08.221Z,1005.88
2018-02-27T03:56:48.732Z,1005.87
2018-02-27T03:57:29.246Z,1005.9
2018-02-27T03:58:09.765Z,1005.85
2018-02-27T03:58:50.278Z,1005.84
2018-02-27T03:59:30.792Z,1005.84
2018-02-27T04:00:11.294Z,1005.86
2018-02-27T04:00:51.799Z,1005.88
2018-02-27T04:01:32.315Z,1005.88
2018-02-27T04:02:12.837Z,1005.84
2018-02-27T04:02:53.362Z,1005.81
2018-02-27T04:03:33.868Z,1005.84
2018-02-27T04:04:14.382Z,1005.82
2018-02-27T04:04:54.909Z,1005.8
2018-02-27T04:05:35.399Z,1005.86
2018-02-27T04:06:15.950Z,1005.82
2018-02-27T04:06:56.489Z,1005.79
2018-02-27T04:07:36.997Z,1005.77
2018-02-27T04:08:17.557Z,1005.77
2018-02-27T04:08:58.017Z,1005.73
2018-02-27T04:09:38.508Z,1005.74
2018-02-27T04:10:19.041Z,1005.68
2018-02-27T04:10:59.538Z,1005.77
2018-02-27T04:11:40.118Z,1005.73
2018-02-27T04:12:20.632Z,1005.68
2018-02-27T04:13:01.131Z,1005.72
2018-02-27T04:13:41.638Z,1005.73
2018-02-27T04:14:22.157Z,1005.67
2018-02-27T04:15:02.676Z,1005.67
2018-02-27T04:15:43.194Z,1005.72
2018-02-27T04:16:23.690Z,1005.7
2018-02-27T04:17:04.206Z,1005.7
2018-02-27T04:17:44.710Z,1005.73
2018-02-27T04:18:25.216Z,1005.71
2018-02-27T04:19:05.728Z,1005.7
2018-02-27T04:19:46.222Z,1005.74
2018-02-27T04:20:26.729Z,1005.74
2018-02-27T04:21:08.042Z,1005.75
2018-02-27T04:21:47.761Z,1005.75
2018-02-27T04:22:28.267Z,1005.75
2018-02-27T04:23:08.779Z,1005.71
2018-02-27T04:23:49.300Z,1005.77
2018-02-27T04:24:29.829Z,1005.79
2018-02-27T04:25:10.342Z,1005.73
2018-02-27T04:25:50.856Z,1005.75
2018-02-27T04:26:31.358Z,1005.78
2018-02-27T04:27:11.875Z,1005.77
2018-02-27T04:27:52.378Z,1005.78
2018-02-27T04:28:32.894Z,1005.77
2018-02-27T04:29:13.391Z,1005.71
2018-02-27T04:29:53.906Z,1005.78
2018-02-27T04:30:34.422Z,1005.76
2018-02-27T04:31:14.934Z,1005.78
2018-02-27T04:31:55.460Z,1005.75
2018-02-27T04:32:35.976Z,1005.73
2018-02-27T04:33:16.492Z,1005.74
2018-02-27T04:33:56.987Z,1005.69
2018-02-27T04:34:37.508Z,1005.76
2018-02-27T04:35:18.010Z,1005.69
2018-02-27T04:35:58.516Z,1005.74
2018-02-27T04:36:39.023Z,1005.72
2018-02-27T04:37:19.527Z,1005.77
2018-02-27T04:38:00.037Z,1005.76
2018-02-27T04:38:40.553Z,1005.76
2018-02-27T04:39:21.047Z,1005.85
2018-02-27T04:40:01.562Z,1005.8
2018-02-27T04:40:42.071Z,1005.78
2018-02-27T04:41:22.581Z,1005.82
2018-02-27T04:42:03.084Z,1005.8
2018-02-27T04:42:43.597Z,1005.83
2018-02-27T04:43:24.099Z,1005.86
2018-02-27T04:44:04.605Z,1005.8
2018-02-27T04:44:45.120Z,1005.78
2018-02-27T04:45:25.623Z,1005.8
2018-02-27T04:46:06.117Z,1005.84
2018-02-27T04:46:46.644Z,1005.8
2018-02-27T04:47:27.138Z,1005.82
2018-02-27T04:48:07.664Z,1005.76
2018-02-27T04:48:48.167Z,1005.82
2018-02-27T04:49:28.684Z,1005.77
2018-02-27T04:50:09.207Z,1005.81
2018-02-27T04:50:49.736Z,1005.78
2018-02-27T04:51:30.242Z,1005.85
2018-02-27T04:52:10.757Z,1005.78
2018-02-27T04:52:51.271Z,1005.84
2018-02-27T04:53:31.800Z,1005.85
2018-02-27T04:54:12.311Z,1005.85
2018-02-27T04:54:52.834Z,1005.9
2018-02-27T04:55:33.353Z,1005.87
2018-02-27T04:56:13.866Z,1005.85
2018-02-27T04:56:54.371Z,1005.87
2018-02-27T04:57:34.874Z,1005.87
2018-02-27T04:58:15.386Z,1005.9
2018-02-27T04:58:55.890Z,1005.85
2018-02-27T04:59:36.411Z,1005.8
2018-02-27T05:00:16.906Z,1005.84
2018-02-27T05:00:57.415Z,1005.86
2018-02-27T05:01:37.943Z,1005.87
2018-02-27T05:02:18.452Z,1005.87
2018-02-27T05:02:58.957Z,1005.82
2018-02-27T05:03:39.472Z,1005.89
2018-02-27T05:04:19.973Z,1005.88
2018-02-27T05:05:00.473Z,1005.83
2018-02-27T05:05:40.966Z,1005.83
2018-02-27T05:06:21.471Z,1005.86
2018-02-27T05:07:01.978Z,1005.81
2018-02-27T05:07:42.504Z,1005.8
2018-02-27T05:08:23.013Z,1005.86
2018-02-27T05:09:03.557Z,1005.82
2018-02-27T05:09:44.071Z,1005.83
2018-02-27T05:10:24.579Z,1005.81
2018-02-27T05:11:05.087Z,1005.87
2018-02-27T05:11:45.601Z,1005.87
2018-02-27T05:12:26.110Z,1005.88
2018-02-27T05:13:06.615Z,1005.87
2018-02-27T05:13:47.127Z,1005.86
2018-02-27T05:14:27.630Z,1005.92
2018-02-27T05:15:08.144Z,1005.91
2018-02-27T05:15:48.670Z,1005.85
2018-02-27T05:16:29.202Z,1005.82
2018-02-27T05:17:09.705Z,1005.86
2018-02-27T05:17:50.216Z,1005.84
2018-02-27T05:18:30.742Z,1005.79
2018-02-27T05:19:11.248Z,1005.75
2018-02-27T05:19:51.754Z,1005.76
2018-02-27T05:20:32.265Z,1005.78
2018-02-27T05:21:12.777Z,1005.79
2018-02-27T05:21:53.285Z,1005.77
2018-02-27T05:22:33.805Z,1005.79
2018-02-27T05:23:14.325Z,1005.79
2018-02-27T05:23:54.840Z,1005.78
2018-02-27T05:24:35.354Z,1005.78
2018-02-27T05:25:15.866Z,1005.78
2018-02-27T05:25:56.383Z,1005.76
2018-02-27T05:26:36.909Z,1005.77
2018-02-27T05:27:17.423Z,1005.76
2018-02-27T05:27:57.940Z,1005.71
2018-02-27T05:28:38.455Z,1005.72
2018-02-27T05:29:18.974Z,1005.77
2018-02-27T05:29:59.486Z,1005.75
2018-02-27T05:30:39.996Z,1005.69
2018-02-27T05:31:20.500Z,1005.68
2018-02-27T05:32:01.014Z,1005.69
2018-02-27T05:32:41.513Z,1005.76
2018-02-27T05:33:22.055Z,1005.72
2018-02-27T05:34:02.565Z,1005.69
2018-02-27T05:34:43.067Z,1005.74
2018-02-27T05:35:23.572Z,1005.74
2018-02-27T05:36:04.081Z,1005.81
2018-02-27T05:36:44.588Z,1005.82
2018-02-27T05:37:25.096Z,1005.74
2018-02-27T05:38:05.597Z,1005.75
2018-02-27T05:38:46.109Z,1005.8
2018-02-27T05:39:26.620Z,1005.72
2018-02-27T05:40:07.126Z,1005.74
2018-02-27T05:40:47.640Z,1005.72
2018-02-27T05:41:28.173Z,1005.72
2018-02-27T05:42:08.665Z,1005.73
2018-02-27T05:42:49.183Z,1005.75
2018-02-27T05:43:29.709Z,1005.77
2018-02-27T05:44:10.233Z,1005.77
2018-02-27T05:44:50.748Z,1005.79
2018-02-27T05:45:31.251Z,1005.72
2018-02-27T05:46:11.758Z,1005.75
2018-02-27T05:46:52.278Z,1005.77
2018-02-27T05:47:32.785Z,1005.75
2018-02-27T05:48:13.296Z,1005.78
2018-02-27T05:48:53.812Z,1005.74
2018-02-27T05:49:34.326Z,1005.71
2018-02-27T05:50:14.835Z,1005.78
2018-02-27T05:50:55.370Z,1005.74
2018-02-27T05:51:35.876Z,1005.79
2018-02-27T05:52:16.385Z,1005.8
2018-02-27T05:52:56.909Z,1005.78
2018-02-27T05:53:37.421Z,1005.78
2018-02-27T05:54:17.944Z,1005.81
2018-02-27T05:54:58.457Z,1005.88
2018-02-27T05:55:38.972Z,1005.86
2018-02-27T05:56:19.487Z,1005.9
2018-02-27T05:56:59.998Z,1005.88
2018-02-27T05:57:40.524Z,1005.87
2018-02-27T05:58:21.033Z,1005.82
2018-02-27T05:59:01.547Z,1005.87
2018-02-27T05:59:42.058Z,1005.9
2018-02-27T06:00:22.574Z,1005.91
2018-02-27T06:01:03.078Z,1005.91
2018-02-27T06:01:43.593Z,1005.91
2018-02-27T06:02:24.093Z,1005.92
2018-02-27T06:03:04.605Z,1005.86
2018-02-27T06:03:45.118Z,1005.93
2018-02-27T06:04:25.642Z,1005.92
2018-02-27T06:05:06.161Z,1005.89
2018-02-27T06:05:46.682Z,1005.87
2018-02-27T06:06:27.200Z,1005.86
2018-02-27T06:07:07.694Z,1005.88
2018-02-27T06:07:48.277Z,1005.85
2018-02-27T06:08:28.724Z,1005.89
2018-02-27T06:09:09.238Z,1005.87
2018-02-27T06:09:49.743Z,1005.92
2018-02-27T06:10:30.284Z,1005.91
2018-02-27T06:11:10.856Z,1005.92
2018-02-27T06:11:51.296Z,1005.93
2018-02-27T06:12:31.821Z,1005.89
2018-02-27T06:13:12.339Z,1005.89
2018-02-27T06:13:52.853Z,1005.91
2018-02-27T06:14:33.355Z,1005.93
2018-02-27T06:15:13.866Z,1005.93
2018-02-27T06:15:54.375Z,1005.98
2018-02-27T06:16:34.886Z,1005.95
2018-02-27T06:17:15.394Z,1005.99
2018-02-27T06:17:55.893Z,1005.97
2018-02-27T06:18:36.400Z,1005.99
2018-02-27T06:19:16.919Z,1005.95
2018-02-27T06:19:57.424Z,1006
2018-02-27T06:20:37.932Z,1005.99
2018-02-27T06:21:18.440Z,1005.97
2018-02-27T06:22:01.509Z,1006.03
2018-02-27T06:22:42.002Z,1006.02
2018-02-27T06:23:22.521Z,1006
2018-02-27T06:24:05.305Z,1006.01
2018-02-27T06:24:46.034Z,1005.97
2018-02-27T06:25:26.348Z,1005.96
2018-02-27T06:26:06.888Z,1006
2018-02-27T06:26:47.386Z,1006.01
2018-02-27T06:27:27.896Z,1005.99
2018-02-27T06:28:08.407Z,1005.98
2018-02-27T06:28:48.915Z,1006.05
2018-02-27T06:29:29.413Z,1006.03
2018-02-27T06:30:09.919Z,1006.02
2018-02-27T06:30:50.437Z,1005.98
2018-02-27T06:31:30.956Z,1006
2018-02-27T06:32:11.460Z,1006.01
2018-02-27T06:32:51.994Z,1006.01
2018-02-27T06:33:32.490Z,1005.98
2018-02-27T06:34:13.111Z,1005.95
2018-02-27T06:34:53.564Z,1006.01
2018-02-27T06:35:34.081Z,1005.98
2018-02-27T06:36:14.586Z,1006.01
2018-02-27T06:36:55.099Z,1005.95
2018-02-27T06:37:35.610Z,1005.95
2018-02-27T06:38:16.123Z,1005.93
2018-02-27T06:38:56.640Z,1005.99
2018-02-27T06:39:37.157Z,1005.94
2018-02-27T06:40:17.684Z,1005.95
2018-02-27T06:40:58.197Z,1005.95
2018-02-27T06:41:38.692Z,1005.97
2018-02-27T06:42:19.206Z,1005.96
2018-02-27T06:42:59.759Z,1006
2018-02-27T06:43:40.220Z,1005.88
2018-02-27T06:44:20.720Z,1005.94
2018-02-27T06:45:01.228Z,1005.92
2018-02-27T06:45:41.764Z,1005.87
2018-02-27T06:46:22.390Z,1005.83
2018-02-27T06:47:02.895Z,1005.91
2018-02-27T06:47:43.413Z,1005.94
2018-02-27T06:48:23.928Z,1005.89
2018-02-27T06:49:04.450Z,1005.91
2018-02-27T06:49:44.954Z,1005.87
2018-02-27T06:50:25.466Z,1005.88
2018-02-27T06:51:05.967Z,1005.87
2018-02-27T06:51:46.474Z,1005.89
2018-02-27T06:52:26.990Z,1005.86
2018-02-27T06:53:07.497Z,1005.9
2018-02-27T06:53:48.004Z,1005.87
2018-02-27T06:54:28.492Z,1005.84
2018-02-27T06:55:09.009Z,1005.9
2018-02-27T06:55:49.526Z,1005.92
2018-02-27T06:56:30.183Z,1005.92
2018-02-27T06:57:10.717Z,1005.89
2018-02-27T06:57:51.232Z,1005.9
2018-02-27T06:58:31.729Z,1006
2018-02-27T06:59:12.260Z,1005.95
2018-02-27T06:59:52.777Z,1005.88
2018-02-27T07:00:33.296Z,1005.92
2018-02-27T07:01:13.819Z,1005.89
2018-02-27T07:01:54.331Z,1006.08
2018-02-27T07:02:34.894Z,1005.94
2018-02-27T07:03:15.364Z,1005.9
2018-02-27T07:03:55.878Z,1005.93
2018-02-27T07:04:36.566Z,1005.86
2018-02-27T07:05:17.071Z,1005.91
2018-02-27T07:05:57.580Z,1005.86
2018-02-27T07:06:38.073Z,1005.88
2018-02-27T07:07:18.617Z,1005.89
2018-02-27T07:07:59.180Z,1005.89
2018-02-27T07:08:39.658Z,1005.88
2018-02-27T07:09:20.182Z,1005.86
2018-02-27T07:10:00.787Z,1005.81
2018-02-27T07:10:41.293Z,1005.8
2018-02-27T07:11:21.831Z,1005.89
2018-02-27T07:12:02.398Z,1005.86
2018-02-27T07:12:42.937Z,1005.86
2018-02-27T07:13:23.455Z,1005.86
2018-02-27T07:14:04.086Z,1005.79
2018-02-27T07:14:44.598Z,1005.83
2018-02-27T07:15:25.119Z,1005.83
2018-02-27T07:16:05.632Z,1005.82
2018-02-27T07:16:46.133Z,1005.8
2018-02-27T07:17:26.654Z,1005.87
2018-02-27T07:18:07.167Z,1005.88
2018-02-27T07:18:47.685Z,1005.84
2018-02-27T07:19:28.207Z,1005.89
2018-02-27T07:20:08.716Z,1005.86
2018-02-27T07:20:49.204Z,1005.82
2018-02-27T07:21:29.723Z,1005.83
2018-02-27T07:22:10.242Z,1005.9
2018-02-27T07:22:50.791Z,1005.84
2018-02-27T07:23:31.311Z,1005.79
2018-02-27T07:24:11.845Z,1005.86
2018-02-27T07:24:52.352Z,1005.9
2018-02-27T07:25:32.914Z,1005.83
2018-02-27T07:26:13.433Z,1005.85
2018-02-27T07:26:53.980Z,1005.89
2018-02-27T07:27:34.492Z,1005.86
2018-02-27T07:28:15.040Z,1005.88
2018-02-27T07:28:55.559Z,1005.85
2018-02-27T07:29:36.074Z,1005.85
2018-02-27T07:30:16.588Z,1005.9
2018-02-27T07:30:57.101Z,1005.84
2018-02-27T07:31:37.609Z,1005.92
2018-02-27T07:32:18.141Z,1005.85
2018-02-27T07:32:58.654Z,1005.85
2018-02-27T07:33:39.154Z,1005.93
2018-02-27T07:34:19.705Z,1005.89
2018-02-27T07:35:00.240Z,1006
2018-02-27T07:35:40.740Z,1005.92
2018-02-27T07:36:21.248Z,1005.85
2018-02-27T07:37:01.765Z,1005.84
2018-02-27T07:37:42.271Z,1005.79
2018-02-27T07:38:22.770Z,1005.88
2018-02-27T07:39:03.288Z,1005.8
2018-02-27T07:39:43.804Z,1005.84
2018-02-27T07:40:24.315Z,1005.82
2018-02-27T07:41:04.821Z,1005.8
2018-02-27T07:41:45.332Z,1005.82
2018-02-27T07:42:25.835Z,1005.77
2018-02-27T07:43:06.387Z,1005.86
2018-02-27T07:43:46.895Z,1005.78
2018-02-27T07:44:27.424Z,1005.85
2018-02-27T07:45:07.943Z,1005.86
2018-02-27T07:45:48.465Z,1005.83
2018-02-27T07:46:28.975Z,1005.78
2018-02-27T07:47:09.598Z,1005.83
2018-02-27T07:47:50.118Z,1005.8
2018-02-27T07:48:30.645Z,1005.81
2018-02-27T07:49:11.144Z,1005.83
2018-02-27T07:49:51.655Z,1005.78
2018-02-27T07:50:32.171Z,1005.9
2018-02-27T07:51:12.690Z,1005.75
2018-02-27T07:51:53.197Z,1005.86
2018-02-27T07:52:33.707Z,1005.85
2018-02-27T07:53:14.212Z,1005.89
2018-02-27T07:53:54.742Z,1005.91
2018-02-27T07:54:35.338Z,1005.95
2018-02-27T07:55:15.845Z,1005.87
2018-02-27T07:55:56.354Z,1005.88
2018-02-27T07:56:36.859Z,1005.83
2018-02-27T07:58:52.005Z,1005.85
2018-02-27T07:59:32.521Z,1005.79
2018-02-27T08:00:13.024Z,1005.94
2018-02-27T08:00:53.537Z,1005.84
2018-02-27T08:01:34.040Z,1005.89
2018-02-27T08:02:14.614Z,1005.89
2018-02-27T08:02:55.137Z,1005.88
2018-02-27T08:03:35.689Z,1005.79
2018-02-27T08:04:16.207Z,1005.8
2018-02-27T08:04:56.715Z,1005.86
2018-02-27T08:05:37.232Z,1005.85
2018-02-27T08:06:17.756Z,1005.83
2018-02-27T08:06:58.289Z,1005.85
2018-02-27T08:07:38.814Z,1005.83
2018-02-27T08:08:19.308Z,1005.84
2018-02-27T08:08:59.937Z,1005.87
2018-02-27T08:09:40.447Z,1005.84
2018-02-27T08:10:20.993Z,1005.82
2018-02-27T08:11:01.479Z,1005.91
2018-02-27T08:11:41.972Z,1005.79
2018-02-27T08:12:22.510Z,1005.8
2018-02-27T08:13:03.017Z,1005.86
2018-02-27T08:13:43.521Z,1005.83
2018-02-27T08:14:24.039Z,1005.84
2018-02-27T08:15:04.533Z,1005.84
2018-02-27T08:15:45.018Z,1005.9